Voorhees Township, New Jersey
Current Conditions -  °F | °C
As of 8:54 PM on Tuesday 21 Oct 2014 (Local Time) from KVAY Reporting Station
Clear Clear  
Wind Chill: 54°   Ceiling: Unl
Heat Index: 54°   Visibility: 10mi
Dew Point: 49°   Wind: 3mph
Humidity: 83%   Direction: 330°NNW
Pressure: 29.86"   Gusts: NA
Location:  39.8445°N, 74.9532°W
Report Text: KVAY 220054Z AUTO 33003KT 10SM CLR 12/09 A2986 RMK AO2 SLP110 T01220094
Loading
Personal Weather Stations






























Interactive Weather Map
Tropical Storm Tracking
New forecast layout! Learn more

10-Day Weather Forecast

Advertisements
Track Severe Weather on mobile